sensor_id;sensor_type;location;lat;lon;timestamp;P1;durP1;ratioP1;P2;durP2;ratioP2
72949;SDS011;64868;45.710;9.590;2023-05-10T00:02:08;15.15;;;9.65;;
72949;SDS011;64868;45.710;9.590;2023-05-10T00:04:41;15.88;;;9.25;;
72949;SDS011;64868;45.710;9.590;2023-05-10T00:07:11;13.52;;;8.30;;
72949;SDS011;64868;45.710;9.590;2023-05-10T00:09:44;14.82;;;8.35;;
72949;SDS011;64868;45.710;9.590;2023-05-10T00:12:14;13.02;;;7.05;;
72949;SDS011;64868;45.710;9.590;2023-05-10T00:14:42;10.70;;;6.80;;
72949;SDS011;64868;45.710;9.590;2023-05-10T00:17:12;11.68;;;7.15;;
72949;SDS011;64868;45.710;9.590;2023-05-10T00:19:52;11.93;;;7.45;;
72949;SDS011;64868;45.710;9.590;2023-05-10T00:22:34;11.88;;;7.35;;
72949;SDS011;64868;45.710;9.590;2023-05-10T00:25:07;10.30;;;5.93;;
72949;SDS011;64868;45.710;9.590;2023-05-10T00:27:41;11.95;;;7.10;;
72949;SDS011;64868;45.710;9.590;2023-05-10T00:30:13;10.45;;;6.47;;
72949;SDS011;64868;45.710;9.590;2023-05-10T00:32:46;11.57;;;6.43;;
72949;SDS011;64868;45.710;9.590;2023-05-10T00:35:19;10.38;;;6.45;;
72949;SDS011;64868;45.710;9.590;2023-05-10T00:37:49;9.88;;;6.32;;
72949;SDS011;64868;45.710;9.590;2023-05-10T00:40:19;9.85;;;5.70;;
72949;SDS011;64868;45.710;9.590;2023-05-10T00:42:49;9.40;;;6.00;;
72949;SDS011;64868;45.710;9.590;2023-05-10T00:45:21;8.73;;;5.20;;
72949;SDS011;64868;45.710;9.590;2023-05-10T00:47:54;9.23;;;5.60;;
72949;SDS011;64868;45.710;9.590;2023-05-10T00:50:27;8.95;;;5.22;;
72949;SDS011;64868;45.710;9.590;2023-05-10T00:52:59;9.40;;;5.82;;
72949;SDS011;64868;45.710;9.590;2023-05-10T00:55:33;8.93;;;5.15;;
72949;SDS011;64868;45.710;9.590;2023-05-10T00:58:05;9.48;;;5.82;;
72949;SDS011;64868;45.710;9.590;2023-05-10T01:00:38;9.70;;;4.85;;
72949;SDS011;64868;45.710;9.590;2023-05-10T01:03:13;9.35;;;5.80;;
72949;SDS011;64868;45.710;9.590;2023-05-10T01:05:46;8.80;;;5.40;;
72949;SDS011;64868;45.710;9.590;2023-05-10T01:08:17;10.05;;;6.07;;
72949;SDS011;64868;45.710;9.590;2023-05-10T01:10:47;9.02;;;5.45;;
72949;SDS011;64868;45.710;9.590;2023-05-10T01:13:29;8.77;;;5.35;;
72949;SDS011;64868;45.710;9.590;2023-05-10T01:16:01;9.13;;;6.03;;
72949;SDS011;64868;45.710;9.590;2023-05-10T01:18:33;10.10;;;6.22;;
72949;SDS011;64868;45.710;9.590;2023-05-10T01:21:14;10.35;;;6.05;;
72949;SDS011;64868;45.710;9.590;2023-05-10T01:27:02;10.35;;;6.10;;
72949;SDS011;64868;45.710;9.590;2023-05-10T01:38:22;10.65;;;6.40;;
72949;SDS011;64868;45.710;9.590;2023-05-10T01:41:01;10.88;;;6.20;;
72949;SDS011;64868;45.710;9.590;2023-05-10T01:43:53;10.45;;;5.97;;
72949;SDS011;64868;45.710;9.590;2023-05-10T01:46:30;9.40;;;5.65;;
72949;SDS011;64868;45.710;9.590;2023-05-10T01:49:03;8.77;;;5.85;;
72949;SDS011;64868;45.710;9.590;2023-05-10T01:51:47;10.10;;;6.05;;
72949;SDS011;64868;45.710;9.590;2023-05-10T01:54:24;10.40;;;6.50;;
72949;SDS011;64868;45.710;9.590;2023-05-10T01:56:55;9.90;;;6.35;;
72949;SDS011;64868;45.710;9.590;2023-05-10T01:59:30;11.70;;;6.07;;
72949;SDS011;64868;45.710;9.590;2023-05-10T02:02:03;10.07;;;6.18;;
72949;SDS011;64868;45.710;9.590;2023-05-10T02:04:35;10.73;;;6.97;;
72949;SDS011;64868;45.710;9.590;2023-05-10T02:07:09;10.90;;;6.65;;
72949;SDS011;64868;45.710;9.590;2023-05-10T02:09:41;10.00;;;6.07;;
72949;SDS011;64868;45.710;9.590;2023-05-10T02:12:15;10.23;;;6.10;;
72949;SDS011;64868;45.710;9.590;2023-05-10T02:14:50;9.45;;;5.38;;
72949;SDS011;64868;45.710;9.590;2023-05-10T02:17:24;9.98;;;5.63;;
72949;SDS011;64868;45.710;9.590;2023-05-10T02:19:56;9.48;;;6.35;;
72949;SDS011;64868;45.710;9.590;2023-05-10T02:22:28;13.32;;;7.97;;
72949;SDS011;64868;45.710;9.590;2023-05-10T02:25:01;11.50;;;6.90;;
72949;SDS011;64868;45.710;9.590;2023-05-10T02:27:36;8.60;;;5.38;;
72949;SDS011;64868;45.710;9.590;2023-05-10T02:30:11;8.85;;;4.80;;
72949;SDS011;64868;45.710;9.590;2023-05-10T02:32:42;8.85;;;5.47;;
72949;SDS011;64868;45.710;9.590;2023-05-10T02:35:14;8.25;;;4.82;;
72949;SDS011;64868;45.710;9.590;2023-05-10T02:37:47;8.85;;;4.88;;
72949;SDS011;64868;45.710;9.590;2023-05-10T02:40:19;8.93;;;5.43;;
72949;SDS011;64868;45.710;9.590;2023-05-10T02:42:51;8.50;;;4.47;;
72949;SDS011;64868;45.710;9.590;2023-05-10T02:45:25;8.48;;;4.78;;
72949;SDS011;64868;45.710;9.590;2023-05-10T02:47:59;8.45;;;4.75;;
72949;SDS011;64868;45.710;9.590;2023-05-10T02:50:30;10.15;;;4.78;;
72949;SDS011;64868;45.710;9.590;2023-05-10T02:53:03;8.68;;;4.50;;
72949;SDS011;64868;45.710;9.590;2023-05-10T02:55:39;10.23;;;4.97;;
72949;SDS011;64868;45.710;9.590;2023-05-10T02:58:14;7.82;;;4.63;;
72949;SDS011;64868;45.710;9.590;2023-05-10T03:00:47;8.70;;;4.45;;
72949;SDS011;64868;45.710;9.590;2023-05-10T03:03:20;6.63;;;4.10;;
72949;SDS011;64868;45.710;9.590;2023-05-10T03:05:52;8.23;;;4.05;;
72949;SDS011;64868;45.710;9.590;2023-05-10T03:08:25;7.88;;;3.80;;
72949;SDS011;64868;45.710;9.590;2023-05-10T03:17:01;8.40;;;4.18;;
72949;SDS011;64868;45.710;9.590;2023-05-10T03:19:42;6.88;;;3.53;;
72949;SDS011;64868;45.710;9.590;2023-05-10T03:22:18;7.60;;;4.10;;
72949;SDS011;64868;45.710;9.590;2023-05-10T03:24:54;7.88;;;4.18;;
72949;SDS011;64868;45.710;9.590;2023-05-10T03:27:25;6.97;;;3.50;;
72949;SDS011;64868;45.710;9.590;2023-05-10T03:29:59;7.78;;;3.88;;
72949;SDS011;64868;45.710;9.590;2023-05-10T03:32:29;6.45;;;3.40;;
72949;SDS011;64868;45.710;9.590;2023-05-10T03:35:02;7.20;;;4.13;;
72949;SDS011;64868;45.710;9.590;2023-05-10T03:37:41;6.45;;;3.58;;
72949;SDS011;64868;45.710;9.590;2023-05-10T03:40:11;9.60;;;4.00;;
72949;SDS011;64868;45.710;9.590;2023-05-10T03:42:44;6.80;;;3.53;;
72949;SDS011;64868;45.710;9.590;2023-05-10T03:45:16;6.78;;;3.60;;
72949;SDS011;64868;45.710;9.590;2023-05-10T03:47:49;6.70;;;3.53;;
72949;SDS011;64868;45.710;9.590;2023-05-10T03:50:22;7.13;;;3.10;;
72949;SDS011;64868;45.710;9.590;2023-05-10T03:52:52;8.02;;;3.75;;
72949;SDS011;64868;45.710;9.590;2023-05-10T03:55:25;6.60;;;3.72;;
72949;SDS011;64868;45.710;9.590;2023-05-10T03:57:57;7.35;;;3.50;;
72949;SDS011;64868;45.710;9.590;2023-05-10T04:00:30;6.70;;;3.47;;
72949;SDS011;64868;45.710;9.590;2023-05-10T04:03:00;6.40;;;3.70;;
72949;SDS011;64868;45.710;9.590;2023-05-10T04:05:30;6.85;;;3.58;;
72949;SDS011;64868;45.710;9.590;2023-05-10T04:08:03;5.70;;;3.05;;
72949;SDS011;64868;45.710;9.590;2023-05-10T04:10:35;6.20;;;3.38;;
72949;SDS011;64868;45.710;9.590;2023-05-10T04:13:08;8.65;;;3.63;;
72949;SDS011;64868;45.710;9.590;2023-05-10T04:15:41;6.93;;;3.70;;
72949;SDS011;64868;45.710;9.590;2023-05-10T04:18:11;7.50;;;3.67;;
72949;SDS011;64868;45.710;9.590;2023-05-10T04:20:41;6.32;;;3.13;;
72949;SDS011;64868;45.710;9.590;2023-05-10T04:23:11;6.35;;;3.25;;
72949;SDS011;64868;45.710;9.590;2023-05-10T04:25:44;6.65;;;3.22;;
72949;SDS011;64868;45.710;9.590;2023-05-10T04:28:16;6.60;;;3.63;;
72949;SDS011;64868;45.710;9.590;2023-05-10T04:30:46;6.35;;;3.35;;
72949;SDS011;64868;45.710;9.590;2023-05-10T04:33:19;6.90;;;3.35;;
72949;SDS011;64868;45.710;9.590;2023-05-10T04:35:51;5.93;;;2.83;;
72949;SDS011;64868;45.710;9.590;2023-05-10T04:38:24;6.25;;;2.80;;
72949;SDS011;64868;45.710;9.590;2023-05-10T04:40:55;7.57;;;2.83;;
72949;SDS011;64868;45.710;9.590;2023-05-10T04:43:35;6.70;;;3.17;;
72949;SDS011;64868;45.710;9.590;2023-05-10T04:46:08;6.75;;;3.58;;
72949;SDS011;64868;45.710;9.590;2023-05-10T04:48:40;7.70;;;4.22;;
72949;SDS011;64868;45.710;9.590;2023-05-10T04:51:08;10.32;;;3.30;;
72949;SDS011;64868;45.710;9.590;2023-05-10T04:53:41;10.10;;;4.15;;
72949;SDS011;64868;45.710;9.590;2023-05-10T04:56:14;8.45;;;4.07;;
72949;SDS011;64868;45.710;9.590;2023-05-10T04:58:46;8.45;;;3.60;;
72949;SDS011;64868;45.710;9.590;2023-05-10T05:01:16;7.22;;;3.42;;
72949;SDS011;64868;45.710;9.590;2023-05-10T05:03:47;8.20;;;4.05;;
72949;SDS011;64868;45.710;9.590;2023-05-10T05:06:19;8.48;;;4.03;;
72949;SDS011;64868;45.710;9.590;2023-05-10T05:08:53;7.72;;;3.72;;
72949;SDS011;64868;45.710;9.590;2023-05-10T05:11:23;8.55;;;3.67;;
72949;SDS011;64868;45.710;9.590;2023-05-10T05:13:53;6.90;;;3.53;;
72949;SDS011;64868;45.710;9.590;2023-05-10T05:16:26;7.88;;;3.60;;
72949;SDS011;64868;45.710;9.590;2023-05-10T05:18:59;7.38;;;3.42;;
72949;SDS011;64868;45.710;9.590;2023-05-10T05:21:33;6.63;;;3.13;;
72949;SDS011;64868;45.710;9.590;2023-05-10T05:24:06;6.15;;;3.15;;
72949;SDS011;64868;45.710;9.590;2023-05-10T05:26:39;11.88;;;3.85;;
72949;SDS011;64868;45.710;9.590;2023-05-10T05:29:13;7.63;;;3.80;;
72949;SDS011;64868;45.710;9.590;2023-05-10T05:31:46;7.45;;;3.67;;
72949;SDS011;64868;45.710;9.590;2023-05-10T05:34:17;7.43;;;3.97;;
72949;SDS011;64868;45.710;9.590;2023-05-10T05:36:50;7.65;;;4.10;;
72949;SDS011;64868;45.710;9.590;2023-05-10T05:39:23;8.10;;;4.22;;
72949;SDS011;64868;45.710;9.590;2023-05-10T05:42:07;10.40;;;3.70;;
72949;SDS011;64868;45.710;9.590;2023-05-10T05:45:01;7.78;;;4.10;;
72949;SDS011;64868;45.710;9.590;2023-05-10T05:47:34;8.40;;;4.18;;
72949;SDS011;64868;45.710;9.590;2023-05-10T05:50:06;7.00;;;3.63;;
72949;SDS011;64868;45.710;9.590;2023-05-10T05:52:39;6.55;;;3.40;;
72949;SDS011;64868;45.710;9.590;2023-05-10T05:55:11;9.20;;;4.20;;
72949;SDS011;64868;45.710;9.590;2023-05-10T05:57:42;8.27;;;3.72;;
72949;SDS011;64868;45.710;9.590;2023-05-10T06:00:12;5.88;;;2.85;;
72949;SDS011;64868;45.710;9.590;2023-05-10T06:02:43;7.78;;;3.40;;
72949;SDS011;64868;45.710;9.590;2023-05-10T06:05:13;7.43;;;3.60;;
72949;SDS011;64868;45.710;9.590;2023-05-10T06:07:46;8.85;;;4.32;;
72949;SDS011;64868;45.710;9.590;2023-05-10T06:10:19;8.13;;;3.92;;
72949;SDS011;64868;45.710;9.590;2023-05-10T06:12:49;7.85;;;3.45;;
72949;SDS011;64868;45.710;9.590;2023-05-10T06:15:19;7.60;;;3.72;;
72949;SDS011;64868;45.710;9.590;2023-05-10T06:17:52;8.07;;;3.65;;
72949;SDS011;64868;45.710;9.590;2023-05-10T06:20:22;6.95;;;3.30;;
72949;SDS011;64868;45.710;9.590;2023-05-10T06:22:50;6.95;;;3.83;;
72949;SDS011;64868;45.710;9.590;2023-05-10T06:25:17;8.35;;;3.78;;
72949;SDS011;64868;45.710;9.590;2023-05-10T06:27:50;8.27;;;4.10;;
72949;SDS011;64868;45.710;9.590;2023-05-10T06:30:22;6.60;;;3.70;;
72949;SDS011;64868;45.710;9.590;2023-05-10T06:32:54;8.02;;;4.00;;
72949;SDS011;64868;45.710;9.590;2023-05-10T06:35:27;7.25;;;3.72;;
72949;SDS011;64868;45.710;9.590;2023-05-10T06:38:00;6.80;;;3.60;;
72949;SDS011;64868;45.710;9.590;2023-05-10T06:40:32;6.15;;;2.90;;
72949;SDS011;64868;45.710;9.590;2023-05-10T06:43:03;7.00;;;3.70;;
72949;SDS011;64868;45.710;9.590;2023-05-10T06:45:33;7.00;;;3.40;;
72949;SDS011;64868;45.710;9.590;2023-05-10T06:48:06;8.85;;;3.80;;
72949;SDS011;64868;45.710;9.590;2023-05-10T06:50:36;8.27;;;4.22;;
72949;SDS011;64868;45.710;9.590;2023-05-10T06:53:09;9.82;;;4.57;;
72949;SDS011;64868;45.710;9.590;2023-05-10T06:55:39;7.10;;;3.95;;
72949;SDS011;64868;45.710;9.590;2023-05-10T06:58:07;7.20;;;4.40;;
72949;SDS011;64868;45.710;9.590;2023-05-10T07:00:40;10.13;;;4.53;;
72949;SDS011;64868;45.710;9.590;2023-05-10T07:03:10;9.13;;;5.10;;
72949;SDS011;64868;45.710;9.590;2023-05-10T07:05:43;7.65;;;4.72;;
72949;SDS011;64868;45.710;9.590;2023-05-10T07:08:16;8.48;;;5.10;;
72949;SDS011;64868;45.710;9.590;2023-05-10T07:10:48;9.25;;;4.95;;
72949;SDS011;64868;45.710;9.590;2023-05-10T07:13:21;11.48;;;4.63;;
72949;SDS011;64868;45.710;9.590;2023-05-10T07:15:54;10.57;;;4.50;;
72949;SDS011;64868;45.710;9.590;2023-05-10T07:18:26;6.47;;;3.72;;
72949;SDS011;64868;45.710;9.590;2023-05-10T07:20:54;7.32;;;3.95;;
72949;SDS011;64868;45.710;9.590;2023-05-10T07:23:24;8.40;;;3.97;;
72949;SDS011;64868;45.710;9.590;2023-05-10T07:25:57;6.80;;;3.60;;
72949;SDS011;64868;45.710;9.590;2023-05-10T07:28:29;9.77;;;5.45;;
72949;SDS011;64868;45.710;9.590;2023-05-10T07:31:00;10.90;;;5.70;;
72949;SDS011;64868;45.710;9.590;2023-05-10T07:33:30;8.15;;;4.80;;
72949;SDS011;64868;45.710;9.590;2023-05-10T07:36:00;7.78;;;4.55;;
72949;SDS011;64868;45.710;9.590;2023-05-10T07:38:31;8.35;;;4.43;;
72949;SDS011;64868;45.710;9.590;2023-05-10T07:41:04;7.85;;;4.30;;
72949;SDS011;64868;45.710;9.590;2023-05-10T07:43:37;7.25;;;4.10;;
72949;SDS011;64868;45.710;9.590;2023-05-10T07:46:04;10.75;;;4.32;;
72949;SDS011;64868;45.710;9.590;2023-05-10T07:48:37;9.65;;;5.13;;
72949;SDS011;64868;45.710;9.590;2023-05-10T07:51:09;8.52;;;4.30;;
72949;SDS011;64868;45.710;9.590;2023-05-10T07:53:40;8.45;;;4.70;;
72949;SDS011;64868;45.710;9.590;2023-05-10T07:56:22;9.57;;;5.15;;
72949;SDS011;64868;45.710;9.590;2023-05-10T07:58:54;10.02;;;4.80;;
72949;SDS011;64868;45.710;9.590;2023-05-10T08:01:30;9.25;;;4.97;;
72949;SDS011;64868;45.710;9.590;2023-05-10T08:04:03;7.55;;;4.50;;
72949;SDS011;64868;45.710;9.590;2023-05-10T08:06:36;8.20;;;5.10;;
72949;SDS011;64868;45.710;9.590;2023-05-10T08:09:08;7.80;;;4.47;;
72949;SDS011;64868;45.710;9.590;2023-05-10T08:11:36;8.48;;;4.30;;
72949;SDS011;64868;45.710;9.590;2023-05-10T08:14:09;7.43;;;4.40;;
72949;SDS011;64868;45.710;9.590;2023-05-10T08:16:39;8.55;;;4.20;;
72949;SDS011;64868;45.710;9.590;2023-05-10T08:19:07;8.25;;;5.07;;
72949;SDS011;64868;45.710;9.590;2023-05-10T08:21:37;8.57;;;4.72;;
72949;SDS011;64868;45.710;9.590;2023-05-10T08:24:09;10.45;;;4.90;;
72949;SDS011;64868;45.710;9.590;2023-05-10T08:26:42;7.85;;;4.90;;
72949;SDS011;64868;45.710;9.590;2023-05-10T08:29:10;8.80;;;4.32;;
72949;SDS011;64868;45.710;9.590;2023-05-10T08:31:40;8.32;;;4.63;;
72949;SDS011;64868;45.710;9.590;2023-05-10T08:34:10;8.60;;;4.40;;
72949;SDS011;64868;45.710;9.590;2023-05-10T08:36:40;10.27;;;4.10;;
72949;SDS011;64868;45.710;9.590;2023-05-10T08:39:13;8.40;;;4.20;;
72949;SDS011;64868;45.710;9.590;2023-05-10T08:41:45;7.45;;;3.78;;
72949;SDS011;64868;45.710;9.590;2023-05-10T08:44:20;9.30;;;4.38;;
72949;SDS011;64868;45.710;9.590;2023-05-10T08:46:51;8.10;;;4.30;;
72949;SDS011;64868;45.710;9.590;2023-05-10T08:49:23;10.02;;;4.63;;
72949;SDS011;64868;45.710;9.590;2023-05-10T08:52:00;8.25;;;4.03;;
72949;SDS011;64868;45.710;9.590;2023-05-10T08:54:35;8.18;;;4.28;;
72949;SDS011;64868;45.710;9.590;2023-05-10T08:57:06;7.20;;;3.90;;
72949;SDS011;64868;45.710;9.590;2023-05-10T08:59:39;8.48;;;4.43;;
72949;SDS011;64868;45.710;9.590;2023-05-10T09:02:09;7.70;;;4.20;;
72949;SDS011;64868;45.710;9.590;2023-05-10T09:04:40;8.77;;;5.45;;
72949;SDS011;64868;45.710;9.590;2023-05-10T09:07:13;8.45;;;4.95;;
72949;SDS011;64868;45.710;9.590;2023-05-10T09:09:43;8.70;;;5.35;;
72949;SDS011;64868;45.710;9.590;2023-05-10T09:12:16;11.65;;;5.50;;
72949;SDS011;64868;45.710;9.590;2023-05-10T09:14:46;9.07;;;5.05;;
72949;SDS011;64868;45.710;9.590;2023-05-10T09:17:17;9.70;;;5.68;;
72949;SDS011;64868;45.710;9.590;2023-05-10T09:19:49;8.23;;;4.60;;
72949;SDS011;64868;45.710;9.590;2023-05-10T09:22:24;12.82;;;6.85;;
72949;SDS011;64868;45.710;9.590;2023-05-10T09:27:39;10.55;;;5.95;;
72949;SDS011;64868;45.710;9.590;2023-05-10T09:30:14;10.02;;;5.20;;
72949;SDS011;64868;45.710;9.590;2023-05-10T09:32:50;9.27;;;5.32;;
72949;SDS011;64868;45.710;9.590;2023-05-10T09:35:23;12.43;;;6.38;;
72949;SDS011;64868;45.710;9.590;2023-05-10T09:37:56;10.48;;;5.78;;
72949;SDS011;64868;45.710;9.590;2023-05-10T09:40:30;9.50;;;5.93;;
72949;SDS011;64868;45.710;9.590;2023-05-10T09:43:03;8.88;;;5.00;;
72949;SDS011;64868;45.710;9.590;2023-05-10T09:45:36;11.25;;;5.55;;
72949;SDS011;64868;45.710;9.590;2023-05-10T09:48:10;9.45;;;5.13;;
72949;SDS011;64868;45.710;9.590;2023-05-10T09:50:43;8.18;;;4.90;;
72949;SDS011;64868;45.710;9.590;2023-05-10T09:53:26;33.05;;;19.33;;
72949;SDS011;64868;45.710;9.590;2023-05-10T09:55:56;15.65;;;9.93;;
72949;SDS011;64868;45.710;9.590;2023-05-10T09:58:30;72.65;;;31.13;;
72949;SDS011;64868;45.710;9.590;2023-05-10T10:01:04;27.50;;;13.07;;
72949;SDS011;64868;45.710;9.590;2023-05-10T10:03:40;57.83;;;29.23;;
72949;SDS011;64868;45.710;9.590;2023-05-10T10:06:11;31.45;;;16.73;;
72949;SDS011;64868;45.710;9.590;2023-05-10T10:08:50;37.28;;;17.08;;
72949;SDS011;64868;45.710;9.590;2023-05-10T10:11:33;28.67;;;16.98;;
72949;SDS011;64868;45.710;9.590;2023-05-10T10:14:16;16.77;;;11.52;;
72949;SDS011;64868;45.710;9.590;2023-05-10T10:16:50;12.80;;;8.05;;
72949;SDS011;64868;45.710;9.590;2023-05-10T10:19:22;21.15;;;11.07;;
72949;SDS011;64868;45.710;9.590;2023-05-10T10:21:53;44.50;;;24.40;;
72949;SDS011;64868;45.710;9.590;2023-05-10T10:24:23;10.65;;;5.78;;
72949;SDS011;64868;45.710;9.590;2023-05-10T10:26:53;6.40;;;3.20;;
72949;SDS011;64868;45.710;9.590;2023-05-10T10:29:32;5.68;;;2.88;;
72949;SDS011;64868;45.710;9.590;2023-05-10T10:32:54;5.07;;;2.63;;
72949;SDS011;64868;45.710;9.590;2023-05-10T10:35:10;6.40;;;3.40;;
72949;SDS011;64868;45.710;9.590;2023-05-10T10:37:48;7.45;;;4.30;;
72949;SDS011;64868;45.710;9.590;2023-05-10T10:40:33;9.93;;;6.05;;
72949;SDS011;64868;45.710;9.590;2023-05-10T10:49:08;8.68;;;5.50;;
72949;SDS011;64868;45.710;9.590;2023-05-10T10:52:12;9.63;;;5.50;;
72949;SDS011;64868;45.710;9.590;2023-05-10T10:55:06;10.20;;;5.47;;
72949;SDS011;64868;45.710;9.590;2023-05-10T11:00:28;7.43;;;5.10;;
72949;SDS011;64868;45.710;9.590;2023-05-10T11:05:46;9.00;;;5.43;;
72949;SDS011;64868;45.710;9.590;2023-05-10T11:08:18;8.63;;;5.35;;
72949;SDS011;64868;45.710;9.590;2023-05-10T11:13:30;21.17;;;4.93;;
72949;SDS011;64868;45.710;9.590;2023-05-10T11:16:20;8.20;;;5.25;;
72949;SDS011;64868;45.710;9.590;2023-05-10T11:19:04;8.63;;;5.95;;
72949;SDS011;64868;45.710;9.590;2023-05-10T11:21:51;8.10;;;5.35;;
72949;SDS011;64868;45.710;9.590;2023-05-10T11:24:41;8.18;;;5.18;;
72949;SDS011;64868;45.710;9.590;2023-05-10T11:27:27;7.57;;;5.00;;
72949;SDS011;64868;45.710;9.590;2023-05-10T11:30:00;8.52;;;4.95;;
72949;SDS011;64868;45.710;9.590;2023-05-10T11:32:32;8.00;;;4.93;;
72949;SDS011;64868;45.710;9.590;2023-05-10T11:34:59;7.70;;;4.75;;
72949;SDS011;64868;45.710;9.590;2023-05-10T11:37:38;6.72;;;4.50;;
72949;SDS011;64868;45.710;9.590;2023-05-10T11:40:11;8.00;;;4.78;;
72949;SDS011;64868;45.710;9.590;2023-05-10T11:42:41;8.95;;;4.80;;
72949;SDS011;64868;45.710;9.590;2023-05-10T11:45:14;8.93;;;4.93;;
72949;SDS011;64868;45.710;9.590;2023-05-10T11:47:44;7.22;;;4.60;;
72949;SDS011;64868;45.710;9.590;2023-05-10T11:50:17;7.43;;;4.63;;
72949;SDS011;64868;45.710;9.590;2023-05-10T11:52:53;7.45;;;4.70;;
72949;SDS011;64868;45.710;9.590;2023-05-10T11:55:25;8.85;;;5.05;;
72949;SDS011;64868;45.710;9.590;2023-05-10T11:57:58;7.93;;;5.32;;
72949;SDS011;64868;45.710;9.590;2023-05-10T12:00:31;8.02;;;5.70;;
72949;SDS011;64868;45.710;9.590;2023-05-10T12:03:02;8.90;;;5.53;;
72949;SDS011;64868;45.710;9.590;2023-05-10T12:05:36;8.02;;;5.15;;
72949;SDS011;64868;45.710;9.590;2023-05-10T12:08:15;8.43;;;5.05;;
72949;SDS011;64868;45.710;9.590;2023-05-10T12:10:50;9.02;;;5.40;;
72949;SDS011;64868;45.710;9.590;2023-05-10T12:13:23;8.73;;;5.25;;
72949;SDS011;64868;45.710;9.590;2023-05-10T12:15:50;10.57;;;7.65;;
72949;SDS011;64868;45.710;9.590;2023-05-10T12:18:22;13.93;;;10.18;;
72949;SDS011;64868;45.710;9.590;2023-05-10T12:20:56;12.20;;;8.30;;
72949;SDS011;64868;45.710;9.590;2023-05-10T12:23:35;12.05;;;7.80;;
72949;SDS011;64868;45.710;9.590;2023-05-10T12:26:05;8.40;;;5.18;;
72949;SDS011;64868;45.710;9.590;2023-05-10T12:28:37;9.27;;;5.10;;
72949;SDS011;64868;45.710;9.590;2023-05-10T12:31:09;11.23;;;7.63;;
72949;SDS011;64868;45.710;9.590;2023-05-10T12:33:40;10.65;;;7.32;;
72949;SDS011;64868;45.710;9.590;2023-05-10T12:36:13;8.20;;;5.70;;
72949;SDS011;64868;45.710;9.590;2023-05-10T12:38:47;9.50;;;6.60;;
72949;SDS011;64868;45.710;9.590;2023-05-10T12:41:19;9.00;;;5.68;;
72949;SDS011;64868;45.710;9.590;2023-05-10T12:43:52;9.27;;;5.35;;
72949;SDS011;64868;45.710;9.590;2023-05-10T12:46:22;8.25;;;5.35;;
72949;SDS011;64868;45.710;9.590;2023-05-10T12:48:54;11.40;;;6.90;;
72949;SDS011;64868;45.710;9.590;2023-05-10T12:51:27;11.60;;;7.38;;
72949;SDS011;64868;45.710;9.590;2023-05-10T12:53:54;10.70;;;6.78;;
72949;SDS011;64868;45.710;9.590;2023-05-10T12:56:27;10.57;;;7.28;;
72949;SDS011;64868;45.710;9.590;2023-05-10T12:59:00;9.90;;;6.93;;
72949;SDS011;64868;45.710;9.590;2023-05-10T13:01:30;10.40;;;6.45;;
72949;SDS011;64868;45.710;9.590;2023-05-10T13:04:03;9.80;;;6.82;;
72949;SDS011;64868;45.710;9.590;2023-05-10T13:06:35;8.93;;;6.25;;
72949;SDS011;64868;45.710;9.590;2023-05-10T13:09:03;9.10;;;5.65;;
72949;SDS011;64868;45.710;9.590;2023-05-10T13:11:36;7.80;;;5.35;;
72949;SDS011;64868;45.710;9.590;2023-05-10T13:14:06;10.00;;;5.80;;
72949;SDS011;64868;45.710;9.590;2023-05-10T13:16:39;8.23;;;5.28;;
72949;SDS011;64868;45.710;9.590;2023-05-10T13:19:11;7.75;;;4.63;;
72949;SDS011;64868;45.710;9.590;2023-05-10T13:21:39;8.80;;;5.55;;
72949;SDS011;64868;45.710;9.590;2023-05-10T13:24:12;9.82;;;5.70;;
72949;SDS011;64868;45.710;9.590;2023-05-10T13:26:44;8.80;;;5.90;;
72949;SDS011;64868;45.710;9.590;2023-05-10T13:29:12;8.35;;;5.60;;
72949;SDS011;64868;45.710;9.590;2023-05-10T13:31:45;10.25;;;6.25;;
72949;SDS011;64868;45.710;9.590;2023-05-10T13:34:15;9.35;;;6.20;;
72949;SDS011;64868;45.710;9.590;2023-05-10T13:36:43;10.65;;;6.22;;
72949;SDS011;64868;45.710;9.590;2023-05-10T13:39:13;9.63;;;5.90;;
72949;SDS011;64868;45.710;9.590;2023-05-10T13:41:44;9.07;;;6.07;;
72949;SDS011;64868;45.710;9.590;2023-05-10T13:44:16;9.82;;;5.90;;
72949;SDS011;64868;45.710;9.590;2023-05-10T13:46:47;10.63;;;5.75;;
72949;SDS011;64868;45.710;9.590;2023-05-10T13:49:17;9.85;;;6.03;;
72949;SDS011;64868;45.710;9.590;2023-05-10T13:51:50;8.70;;;5.80;;
72949;SDS011;64868;45.710;9.590;2023-05-10T13:54:19;8.43;;;5.72;;
72949;SDS011;64868;45.710;9.590;2023-05-10T13:56:50;8.38;;;5.75;;
72949;SDS011;64868;45.710;9.590;2023-05-10T13:59:22;9.52;;;6.90;;
72949;SDS011;64868;45.710;9.590;2023-05-10T14:01:50;11.23;;;6.53;;
72949;SDS011;64868;45.710;9.590;2023-05-10T14:04:18;11.95;;;6.60;;
72949;SDS011;64868;45.710;9.590;2023-05-10T14:06:45;9.43;;;6.53;;
72949;SDS011;64868;45.710;9.590;2023-05-10T14:09:15;10.48;;;7.20;;
72949;SDS011;64868;45.710;9.590;2023-05-10T14:11:48;10.63;;;7.22;;
72949;SDS011;64868;45.710;9.590;2023-05-10T14:14:15;10.63;;;6.97;;
72949;SDS011;64868;45.710;9.590;2023-05-10T14:16:46;10.68;;;7.40;;
72949;SDS011;64868;45.710;9.590;2023-05-10T14:19:16;9.60;;;6.55;;
72949;SDS011;64868;45.710;9.590;2023-05-10T14:21:44;12.63;;;7.15;;
72949;SDS011;64868;45.710;9.590;2023-05-10T14:24:12;10.50;;;7.60;;
72949;SDS011;64868;45.710;9.590;2023-05-10T14:26:43;11.27;;;7.75;;
72949;SDS011;64868;45.710;9.590;2023-05-10T14:29:10;11.65;;;7.53;;
72949;SDS011;64868;45.710;9.590;2023-05-10T14:31:38;12.23;;;7.82;;
72949;SDS011;64868;45.710;9.590;2023-05-10T14:34:03;9.95;;;7.18;;
72949;SDS011;64868;45.710;9.590;2023-05-10T14:36:34;10.18;;;6.70;;
72949;SDS011;64868;45.710;9.590;2023-05-10T14:39:07;10.35;;;7.72;;
72949;SDS011;64868;45.710;9.590;2023-05-10T14:41:37;9.95;;;7.47;;
72949;SDS011;64868;45.710;9.590;2023-05-10T14:44:10;10.20;;;7.30;;
72949;SDS011;64868;45.710;9.590;2023-05-10T14:46:42;12.60;;;7.32;;
72949;SDS011;64868;45.710;9.590;2023-05-10T14:49:13;10.98;;;6.88;;
72949;SDS011;64868;45.710;9.590;2023-05-10T14:51:43;9.35;;;6.55;;
72949;SDS011;64868;45.710;9.590;2023-05-10T14:54:13;10.02;;;6.35;;
72949;SDS011;64868;45.710;9.590;2023-05-10T14:56:43;11.40;;;6.95;;
72949;SDS011;64868;45.710;9.590;2023-05-10T14:59:16;10.18;;;7.20;;
72949;SDS011;64868;45.710;9.590;2023-05-10T15:01:49;11.88;;;6.97;;
72949;SDS011;64868;45.710;9.590;2023-05-10T15:04:19;9.98;;;6.32;;
72949;SDS011;64868;45.710;9.590;2023-05-10T15:06:49;11.40;;;7.43;;
72949;SDS011;64868;45.710;9.590;2023-05-10T15:09:22;11.35;;;7.05;;
72949;SDS011;64868;45.710;9.590;2023-05-10T15:11:54;13.00;;;6.78;;
72949;SDS011;64868;45.710;9.590;2023-05-10T15:14:27;11.65;;;7.32;;
72949;SDS011;64868;45.710;9.590;2023-05-10T15:16:57;14.00;;;8.48;;
72949;SDS011;64868;45.710;9.590;2023-05-10T15:19:27;12.45;;;7.53;;
72949;SDS011;64868;45.710;9.590;2023-05-10T15:22:00;11.80;;;7.35;;
72949;SDS011;64868;45.710;9.590;2023-05-10T15:24:31;17.42;;;8.70;;
72949;SDS011;64868;45.710;9.590;2023-05-10T15:27:03;16.75;;;8.75;;
72949;SDS011;64868;45.710;9.590;2023-05-10T15:29:33;11.85;;;7.63;;
72949;SDS011;64868;45.710;9.590;2023-05-10T15:32:06;12.60;;;7.70;;
72949;SDS011;64868;45.710;9.590;2023-05-10T15:34:38;13.95;;;8.75;;
72949;SDS011;64868;45.710;9.590;2023-05-10T15:37:11;13.38;;;7.53;;
72949;SDS011;64868;45.710;9.590;2023-05-10T15:39:39;10.65;;;6.47;;
72949;SDS011;64868;45.710;9.590;2023-05-10T15:42:07;13.55;;;8.30;;
72949;SDS011;64868;45.710;9.590;2023-05-10T15:44:37;9.93;;;6.10;;
72949;SDS011;64868;45.710;9.590;2023-05-10T15:47:08;9.80;;;6.55;;
72949;SDS011;64868;45.710;9.590;2023-05-10T15:49:40;9.93;;;6.10;;
72949;SDS011;64868;45.710;9.590;2023-05-10T15:52:11;13.15;;;8.20;;